sensor_id;sensor_type;location;lat;lon;timestamp;P1;durP1;ratioP1;P2;durP2;ratioP2
76236;SDS011;65038;53.200;6.530;2023-06-19T00:01:14;10.98;;;5.45;;
76236;SDS011;65038;53.200;6.530;2023-06-19T00:03:40;12.32;;;5.70;;
76236;SDS011;65038;53.200;6.530;2023-06-19T00:06:06;11.57;;;5.60;;
76236;SDS011;65038;53.200;6.530;2023-06-19T00:08:32;16.90;;;5.90;;
76236;SDS011;65038;53.200;6.530;2023-06-19T00:10:58;14.13;;;6.35;;
76236;SDS011;65038;53.200;6.530;2023-06-19T00:13:24;18.08;;;6.35;;
76236;SDS011;65038;53.200;6.530;2023-06-19T00:15:50;17.10;;;6.47;;
76236;SDS011;65038;53.200;6.530;2023-06-19T00:18:16;14.45;;;5.88;;
76236;SDS011;65038;53.200;6.530;2023-06-19T00:20:44;14.15;;;5.95;;
76236;SDS011;65038;53.200;6.530;2023-06-19T00:23:11;9.68;;;5.60;;
76236;SDS011;65038;53.200;6.530;2023-06-19T00:25:42;12.63;;;5.90;;
76236;SDS011;65038;53.200;6.530;2023-06-19T00:28:09;10.88;;;5.68;;
76236;SDS011;65038;53.200;6.530;2023-06-19T00:30:37;8.57;;;5.75;;
76236;SDS011;65038;53.200;6.530;2023-06-19T00:33:04;11.05;;;5.70;;
76236;SDS011;65038;53.200;6.530;2023-06-19T00:35:30;10.13;;;5.90;;
76236;SDS011;65038;53.200;6.530;2023-06-19T00:37:56;8.02;;;5.93;;
76236;SDS011;65038;53.200;6.530;2023-06-19T00:40:29;8.93;;;5.60;;
76236;SDS011;65038;53.200;6.530;2023-06-19T00:42:55;7.43;;;5.03;;
76236;SDS011;65038;53.200;6.530;2023-06-19T00:45:21;8.20;;;5.30;;
76236;SDS011;65038;53.200;6.530;2023-06-19T00:47:49;8.00;;;4.93;;
76236;SDS011;65038;53.200;6.530;2023-06-19T00:50:15;8.05;;;5.50;;
76236;SDS011;65038;53.200;6.530;2023-06-19T00:52:41;8.82;;;6.03;;
76236;SDS011;65038;53.200;6.530;2023-06-19T00:55:07;8.32;;;5.60;;
76236;SDS011;65038;53.200;6.530;2023-06-19T00:57:34;7.97;;;5.57;;
76236;SDS011;65038;53.200;6.530;2023-06-19T01:00:01;9.25;;;5.78;;
76236;SDS011;65038;53.200;6.530;2023-06-19T01:02:29;6.88;;;5.32;;
76236;SDS011;65038;53.200;6.530;2023-06-19T01:04:56;10.15;;;5.50;;
76236;SDS011;65038;53.200;6.530;2023-06-19T01:07:34;8.15;;;5.60;;
76236;SDS011;65038;53.200;6.530;2023-06-19T01:10:05;7.95;;;5.60;;
76236;SDS011;65038;53.200;6.530;2023-06-19T01:12:36;8.27;;;5.55;;
76236;SDS011;65038;53.200;6.530;2023-06-19T01:15:03;7.13;;;5.50;;
76236;SDS011;65038;53.200;6.530;2023-06-19T01:17:30;7.32;;;5.60;;
76236;SDS011;65038;53.200;6.530;2023-06-19T01:19:56;9.15;;;5.95;;
76236;SDS011;65038;53.200;6.530;2023-06-19T01:22:24;8.85;;;6.25;;
76236;SDS011;65038;53.200;6.530;2023-06-19T01:24:49;10.18;;;5.75;;
76236;SDS011;65038;53.200;6.530;2023-06-19T01:27:15;8.80;;;5.68;;
76236;SDS011;65038;53.200;6.530;2023-06-19T01:29:41;8.90;;;5.50;;
76236;SDS011;65038;53.200;6.530;2023-06-19T01:32:12;8.63;;;6.10;;
76236;SDS011;65038;53.200;6.530;2023-06-19T01:34:39;7.32;;;5.82;;
76236;SDS011;65038;53.200;6.530;2023-06-19T01:37:05;8.35;;;5.60;;
76236;SDS011;65038;53.200;6.530;2023-06-19T01:39:32;8.68;;;6.07;;
76236;SDS011;65038;53.200;6.530;2023-06-19T01:42:00;7.65;;;5.55;;
76236;SDS011;65038;53.200;6.530;2023-06-19T01:44:27;9.05;;;5.75;;
76236;SDS011;65038;53.200;6.530;2023-06-19T01:46:53;9.23;;;5.90;;
76236;SDS011;65038;53.200;6.530;2023-06-19T01:49:19;10.93;;;5.78;;
76236;SDS011;65038;53.200;6.530;2023-06-19T01:51:45;7.57;;;5.68;;
76236;SDS011;65038;53.200;6.530;2023-06-19T01:54:11;9.20;;;5.68;;
76236;SDS011;65038;53.200;6.530;2023-06-19T01:56:37;8.88;;;5.63;;
76236;SDS011;65038;53.200;6.530;2023-06-19T01:59:03;8.25;;;5.60;;
76236;SDS011;65038;53.200;6.530;2023-06-19T02:01:29;8.43;;;5.80;;
76236;SDS011;65038;53.200;6.530;2023-06-19T02:03:55;9.07;;;5.55;;
76236;SDS011;65038;53.200;6.530;2023-06-19T02:06:21;7.97;;;5.95;;
76236;SDS011;65038;53.200;6.530;2023-06-19T02:08:47;7.22;;;5.68;;
76236;SDS011;65038;53.200;6.530;2023-06-19T02:11:14;8.23;;;5.43;;
76236;SDS011;65038;53.200;6.530;2023-06-19T02:13:40;7.80;;;5.68;;
76236;SDS011;65038;53.200;6.530;2023-06-19T02:16:06;8.23;;;5.72;;
76236;SDS011;65038;53.200;6.530;2023-06-19T02:18:32;7.60;;;5.53;;
76236;SDS011;65038;53.200;6.530;2023-06-19T02:20:58;8.95;;;5.32;;
76236;SDS011;65038;53.200;6.530;2023-06-19T02:23:24;7.65;;;5.65;;
76236;SDS011;65038;53.200;6.530;2023-06-19T02:25:50;7.22;;;5.50;;
76236;SDS011;65038;53.200;6.530;2023-06-19T02:28:16;9.73;;;6.03;;
76236;SDS011;65038;53.200;6.530;2023-06-19T02:30:42;9.05;;;5.82;;
76236;SDS011;65038;53.200;6.530;2023-06-19T02:33:08;8.02;;;5.57;;
76236;SDS011;65038;53.200;6.530;2023-06-19T02:35:34;9.88;;;5.65;;
76236;SDS011;65038;53.200;6.530;2023-06-19T02:38:00;8.75;;;5.93;;
76236;SDS011;65038;53.200;6.530;2023-06-19T02:40:26;9.43;;;5.70;;
76236;SDS011;65038;53.200;6.530;2023-06-19T02:42:52;7.97;;;5.50;;
76236;SDS011;65038;53.200;6.530;2023-06-19T02:45:18;8.25;;;5.90;;
76236;SDS011;65038;53.200;6.530;2023-06-19T02:47:44;7.57;;;5.38;;
76236;SDS011;65038;53.200;6.530;2023-06-19T02:50:11;10.45;;;5.68;;
76236;SDS011;65038;53.200;6.530;2023-06-19T02:52:36;8.60;;;6.05;;
76236;SDS011;65038;53.200;6.530;2023-06-19T02:55:03;9.77;;;5.95;;
76236;SDS011;65038;53.200;6.530;2023-06-19T02:57:29;10.40;;;6.15;;
76236;SDS011;65038;53.200;6.530;2023-06-19T02:59:55;9.40;;;5.82;;
76236;SDS011;65038;53.200;6.530;2023-06-19T03:02:21;10.07;;;5.78;;
76236;SDS011;65038;53.200;6.530;2023-06-19T03:04:47;8.48;;;5.95;;
76236;SDS011;65038;53.200;6.530;2023-06-19T03:07:13;9.00;;;5.80;;
76236;SDS011;65038;53.200;6.530;2023-06-19T03:09:39;9.13;;;5.85;;
76236;SDS011;65038;53.200;6.530;2023-06-19T03:12:05;10.15;;;6.15;;
76236;SDS011;65038;53.200;6.530;2023-06-19T03:14:31;8.45;;;6.30;;
76236;SDS011;65038;53.200;6.530;2023-06-19T03:16:57;9.98;;;6.15;;
76236;SDS011;65038;53.200;6.530;2023-06-19T03:19:23;8.43;;;6.05;;
76236;SDS011;65038;53.200;6.530;2023-06-19T03:21:49;7.80;;;5.70;;
76236;SDS011;65038;53.200;6.530;2023-06-19T03:24:15;8.77;;;6.07;;
76236;SDS011;65038;53.200;6.530;2023-06-19T03:26:41;9.98;;;5.97;;
76236;SDS011;65038;53.200;6.530;2023-06-19T03:29:07;8.00;;;6.07;;
76236;SDS011;65038;53.200;6.530;2023-06-19T03:31:33;8.70;;;6.13;;
76236;SDS011;65038;53.200;6.530;2023-06-19T03:33:59;8.57;;;5.90;;
76236;SDS011;65038;53.200;6.530;2023-06-19T03:36:25;7.88;;;5.80;;
76236;SDS011;65038;53.200;6.530;2023-06-19T03:38:51;8.35;;;6.15;;
76236;SDS011;65038;53.200;6.530;2023-06-19T03:41:17;8.70;;;5.63;;
76236;SDS011;65038;53.200;6.530;2023-06-19T03:43:43;8.65;;;6.22;;
76236;SDS011;65038;53.200;6.530;2023-06-19T03:46:09;8.80;;;6.28;;
76236;SDS011;65038;53.200;6.530;2023-06-19T03:48:35;10.48;;;6.07;;
76236;SDS011;65038;53.200;6.530;2023-06-19T03:51:01;8.63;;;6.28;;
76236;SDS011;65038;53.200;6.530;2023-06-19T03:53:27;8.18;;;5.88;;
76236;SDS011;65038;53.200;6.530;2023-06-19T03:55:53;8.85;;;6.28;;
76236;SDS011;65038;53.200;6.530;2023-06-19T03:58:19;8.82;;;6.32;;
76236;SDS011;65038;53.200;6.530;2023-06-19T04:00:45;9.27;;;6.45;;
76236;SDS011;65038;53.200;6.530;2023-06-19T04:03:11;10.05;;;5.82;;
76236;SDS011;65038;53.200;6.530;2023-06-19T04:05:37;8.68;;;6.03;;
76236;SDS011;65038;53.200;6.530;2023-06-19T04:08:06;9.90;;;6.35;;
76236;SDS011;65038;53.200;6.530;2023-06-19T04:10:32;8.38;;;5.82;;
76236;SDS011;65038;53.200;6.530;2023-06-19T04:12:58;8.82;;;5.50;;
76236;SDS011;65038;53.200;6.530;2023-06-19T04:15:24;7.88;;;5.90;;
76236;SDS011;65038;53.200;6.530;2023-06-19T04:17:50;7.90;;;5.30;;
76236;SDS011;65038;53.200;6.530;2023-06-19T04:20:16;10.05;;;5.88;;
76236;SDS011;65038;53.200;6.530;2023-06-19T04:22:42;8.32;;;5.35;;
76236;SDS011;65038;53.200;6.530;2023-06-19T04:25:08;9.18;;;5.25;;
76236;SDS011;65038;53.200;6.530;2023-06-19T04:27:37;8.07;;;5.70;;
76236;SDS011;65038;53.200;6.530;2023-06-19T04:30:03;8.20;;;5.35;;
76236;SDS011;65038;53.200;6.530;2023-06-19T04:32:31;7.97;;;5.32;;
76236;SDS011;65038;53.200;6.530;2023-06-19T04:34:57;7.20;;;5.10;;
76236;SDS011;65038;53.200;6.530;2023-06-19T04:37:23;10.38;;;5.47;;
76236;SDS011;65038;53.200;6.530;2023-06-19T04:39:50;7.93;;;5.40;;
76236;SDS011;65038;53.200;6.530;2023-06-19T04:42:16;8.70;;;5.47;;
76236;SDS011;65038;53.200;6.530;2023-06-19T04:44:44;7.22;;;4.80;;
76236;SDS011;65038;53.200;6.530;2023-06-19T04:47:10;7.13;;;4.60;;
76236;SDS011;65038;53.200;6.530;2023-06-19T04:49:36;6.15;;;4.60;;
76236;SDS011;65038;53.200;6.530;2023-06-19T04:52:02;9.05;;;4.38;;
76236;SDS011;65038;53.200;6.530;2023-06-19T04:54:28;8.38;;;4.43;;
76236;SDS011;65038;53.200;6.530;2023-06-19T04:56:57;6.65;;;4.00;;
76236;SDS011;65038;53.200;6.530;2023-06-19T04:59:23;7.97;;;3.90;;
76236;SDS011;65038;53.200;6.530;2023-06-19T05:01:49;6.90;;;4.38;;
76236;SDS011;65038;53.200;6.530;2023-06-19T05:04:18;6.47;;;4.38;;
76236;SDS011;65038;53.200;6.530;2023-06-19T05:06:44;6.72;;;3.83;;
76236;SDS011;65038;53.200;6.530;2023-06-19T05:09:10;7.78;;;3.90;;
76236;SDS011;65038;53.200;6.530;2023-06-19T05:11:37;7.82;;;4.13;;
76236;SDS011;65038;53.200;6.530;2023-06-19T05:14:03;9.25;;;4.60;;
76236;SDS011;65038;53.200;6.530;2023-06-19T05:16:29;7.82;;;4.20;;
76236;SDS011;65038;53.200;6.530;2023-06-19T05:18:55;8.00;;;4.07;;
76236;SDS011;65038;53.200;6.530;2023-06-19T05:21:21;6.50;;;4.00;;
76236;SDS011;65038;53.200;6.530;2023-06-19T05:23:47;8.15;;;4.10;;
76236;SDS011;65038;53.200;6.530;2023-06-19T05:26:16;7.40;;;3.80;;
76236;SDS011;65038;53.200;6.530;2023-06-19T05:28:42;6.40;;;3.70;;
76236;SDS011;65038;53.200;6.530;2023-06-19T05:31:08;6.55;;;3.90;;
76236;SDS011;65038;53.200;6.530;2023-06-19T05:33:34;8.00;;;4.10;;
76236;SDS011;65038;53.200;6.530;2023-06-19T05:36:00;7.65;;;3.60;;
76236;SDS011;65038;53.200;6.530;2023-06-19T05:38:26;6.72;;;4.00;;
76236;SDS011;65038;53.200;6.530;2023-06-19T05:40:55;7.20;;;4.07;;
76236;SDS011;65038;53.200;6.530;2023-06-19T05:43:21;8.02;;;4.25;;
76236;SDS011;65038;53.200;6.530;2023-06-19T05:45:49;6.95;;;4.72;;
76236;SDS011;65038;53.200;6.530;2023-06-19T05:48:15;6.15;;;4.22;;
76236;SDS011;65038;53.200;6.530;2023-06-19T05:50:41;6.32;;;4.25;;
76236;SDS011;65038;53.200;6.530;2023-06-19T05:53:07;7.15;;;4.45;;
76236;SDS011;65038;53.200;6.530;2023-06-19T05:55:33;6.20;;;4.50;;
76236;SDS011;65038;53.200;6.530;2023-06-19T05:57:59;10.95;;;4.57;;
76236;SDS011;65038;53.200;6.530;2023-06-19T06:00:26;8.75;;;4.63;;
76236;SDS011;65038;53.200;6.530;2023-06-19T06:02:52;7.85;;;4.85;;
76236;SDS011;65038;53.200;6.530;2023-06-19T06:05:18;8.25;;;5.00;;
76236;SDS011;65038;53.200;6.530;2023-06-19T06:07:45;9.25;;;5.05;;
76236;SDS011;65038;53.200;6.530;2023-06-19T06:10:11;8.18;;;4.93;;
76236;SDS011;65038;53.200;6.530;2023-06-19T06:12:38;8.65;;;5.00;;
76236;SDS011;65038;53.200;6.530;2023-06-19T06:15:05;9.90;;;5.25;;
76236;SDS011;65038;53.200;6.530;2023-06-19T06:17:31;8.40;;;5.85;;
76236;SDS011;65038;53.200;6.530;2023-06-19T06:19:57;8.48;;;5.25;;
76236;SDS011;65038;53.200;6.530;2023-06-19T06:22:23;9.15;;;5.45;;
76236;SDS011;65038;53.200;6.530;2023-06-19T06:24:49;9.13;;;5.82;;
76236;SDS011;65038;53.200;6.530;2023-06-19T06:27:15;9.55;;;5.78;;
76236;SDS011;65038;53.200;6.530;2023-06-19T06:29:41;9.90;;;5.85;;
76236;SDS011;65038;53.200;6.530;2023-06-19T06:32:07;8.73;;;6.05;;
76236;SDS011;65038;53.200;6.530;2023-06-19T06:34:34;11.25;;;5.82;;
76236;SDS011;65038;53.200;6.530;2023-06-19T06:37:00;8.73;;;5.85;;
76236;SDS011;65038;53.200;6.530;2023-06-19T06:39:26;10.35;;;6.00;;
76236;SDS011;65038;53.200;6.530;2023-06-19T06:41:52;9.65;;;6.13;;
76236;SDS011;65038;53.200;6.530;2023-06-19T06:44:18;8.30;;;5.10;;
76236;SDS011;65038;53.200;6.530;2023-06-19T06:46:44;8.25;;;5.18;;
76236;SDS011;65038;53.200;6.530;2023-06-19T06:49:11;6.45;;;4.75;;
76236;SDS011;65038;53.200;6.530;2023-06-19T06:51:37;8.13;;;5.07;;
76236;SDS011;65038;53.200;6.530;2023-06-19T06:54:03;8.98;;;5.25;;
76236;SDS011;65038;53.200;6.530;2023-06-19T06:56:29;9.05;;;5.38;;
76236;SDS011;65038;53.200;6.530;2023-06-19T06:58:55;8.10;;;5.25;;
76236;SDS011;65038;53.200;6.530;2023-06-19T07:01:21;9.13;;;5.97;;
76236;SDS011;65038;53.200;6.530;2023-06-19T07:03:47;10.48;;;6.57;;
76236;SDS011;65038;53.200;6.530;2023-06-19T07:06:13;10.57;;;7.07;;
76236;SDS011;65038;53.200;6.530;2023-06-19T07:08:39;11.48;;;6.70;;
76236;SDS011;65038;53.200;6.530;2023-06-19T07:11:06;9.50;;;6.20;;
76236;SDS011;65038;53.200;6.530;2023-06-19T07:13:32;10.05;;;6.13;;
76236;SDS011;65038;53.200;6.530;2023-06-19T07:15:58;10.48;;;7.00;;
76236;SDS011;65038;53.200;6.530;2023-06-19T07:18:26;9.25;;;6.50;;
76236;SDS011;65038;53.200;6.530;2023-06-19T07:20:52;11.00;;;7.47;;
76236;SDS011;65038;53.200;6.530;2023-06-19T07:23:18;11.75;;;7.55;;
76236;SDS011;65038;53.200;6.530;2023-06-19T07:25:45;12.70;;;7.65;;
76236;SDS011;65038;53.200;6.530;2023-06-19T07:28:11;13.32;;;8.68;;
76236;SDS011;65038;53.200;6.530;2023-06-19T07:30:38;14.60;;;8.95;;
76236;SDS011;65038;53.200;6.530;2023-06-19T07:33:04;19.63;;;9.60;;
76236;SDS011;65038;53.200;6.530;2023-06-19T07:35:30;16.05;;;10.73;;
76236;SDS011;65038;53.200;6.530;2023-06-19T07:37:56;14.23;;;9.70;;
76236;SDS011;65038;53.200;6.530;2023-06-19T07:40:23;16.40;;;10.90;;
76236;SDS011;65038;53.200;6.530;2023-06-19T07:42:49;20.10;;;11.85;;
76236;SDS011;65038;53.200;6.530;2023-06-19T07:45:15;17.20;;;11.10;;
76236;SDS011;65038;53.200;6.530;2023-06-19T07:47:41;17.30;;;11.05;;
76236;SDS011;65038;53.200;6.530;2023-06-19T07:50:07;17.85;;;11.15;;
76236;SDS011;65038;53.200;6.530;2023-06-19T07:52:33;19.83;;;12.00;;
76236;SDS011;65038;53.200;6.530;2023-06-19T07:54:59;16.02;;;10.60;;
76236;SDS011;65038;53.200;6.530;2023-06-19T07:57:25;17.23;;;10.68;;
76236;SDS011;65038;53.200;6.530;2023-06-19T07:59:52;17.55;;;10.93;;
76236;SDS011;65038;53.200;6.530;2023-06-19T08:02:18;26.33;;;12.38;;
76236;SDS011;65038;53.200;6.530;2023-06-19T08:04:45;18.73;;;11.43;;
76236;SDS011;65038;53.200;6.530;2023-06-19T08:07:11;16.42;;;10.20;;
76236;SDS011;65038;53.200;6.530;2023-06-19T08:09:37;20.13;;;10.93;;
76236;SDS011;65038;53.200;6.530;2023-06-19T08:12:03;24.23;;;11.68;;
76236;SDS011;65038;53.200;6.530;2023-06-19T08:14:29;15.68;;;9.20;;
76236;SDS011;65038;53.200;6.530;2023-06-19T08:16:55;16.80;;;9.02;;
76236;SDS011;65038;53.200;6.530;2023-06-19T08:19:21;11.52;;;6.80;;
76236;SDS011;65038;53.200;6.530;2023-06-19T08:21:47;13.30;;;7.15;;
76236;SDS011;65038;53.200;6.530;2023-06-19T08:24:13;23.15;;;9.13;;
76236;SDS011;65038;53.200;6.530;2023-06-19T08:26:39;14.18;;;7.35;;
76236;SDS011;65038;53.200;6.530;2023-06-19T08:29:05;20.83;;;9.70;;
76236;SDS011;65038;53.200;6.530;2023-06-19T08:31:31;10.75;;;6.70;;
76236;SDS011;65038;53.200;6.530;2023-06-19T08:33:59;11.00;;;6.72;;
76236;SDS011;65038;53.200;6.530;2023-06-19T08:36:25;10.73;;;6.40;;
76236;SDS011;65038;53.200;6.530;2023-06-19T08:38:51;11.18;;;6.28;;
76236;SDS011;65038;53.200;6.530;2023-06-19T08:41:18;9.52;;;6.32;;
76236;SDS011;65038;53.200;6.530;2023-06-19T08:43:44;9.98;;;6.30;;
76236;SDS011;65038;53.200;6.530;2023-06-19T08:46:11;9.45;;;6.72;;
76236;SDS011;65038;53.200;6.530;2023-06-19T08:48:38;14.35;;;5.82;;
76236;SDS011;65038;53.200;6.530;2023-06-19T08:51:04;10.10;;;5.97;;
76236;SDS011;65038;53.200;6.530;2023-06-19T08:53:32;10.63;;;5.85;;
76236;SDS011;65038;53.200;6.530;2023-06-19T08:55:59;10.40;;;5.45;;
76236;SDS011;65038;53.200;6.530;2023-06-19T08:58:25;8.88;;;5.32;;
76236;SDS011;65038;53.200;6.530;2023-06-19T09:00:51;9.57;;;5.03;;
76236;SDS011;65038;53.200;6.530;2023-06-19T09:03:20;9.32;;;5.38;;
76236;SDS011;65038;53.200;6.530;2023-06-19T09:05:47;8.70;;;5.10;;
76236;SDS011;65038;53.200;6.530;2023-06-19T09:08:16;10.02;;;5.18;;
76236;SDS011;65038;53.200;6.530;2023-06-19T09:10:42;9.75;;;5.20;;
76236;SDS011;65038;53.200;6.530;2023-06-19T09:13:08;8.32;;;4.40;;
76236;SDS011;65038;53.200;6.530;2023-06-19T09:15:35;8.75;;;4.60;;
76236;SDS011;65038;53.200;6.530;2023-06-19T09:18:05;7.95;;;4.00;;
76236;SDS011;65038;53.200;6.530;2023-06-19T09:20:32;7.55;;;4.20;;
76236;SDS011;65038;53.200;6.530;2023-06-19T09:22:59;6.78;;;3.80;;
76236;SDS011;65038;53.200;6.530;2023-06-19T09:25:25;8.55;;;4.28;;
76236;SDS011;65038;53.200;6.530;2023-06-19T09:27:54;6.53;;;3.95;;
76236;SDS011;65038;53.200;6.530;2023-06-19T09:30:20;9.38;;;3.83;;
76236;SDS011;65038;53.200;6.530;2023-06-19T09:32:47;8.18;;;4.13;;
76236;SDS011;65038;53.200;6.530;2023-06-19T09:35:13;6.38;;;3.80;;
76236;SDS011;65038;53.200;6.530;2023-06-19T09:37:39;8.52;;;4.30;;
76236;SDS011;65038;53.200;6.530;2023-06-19T09:40:05;8.18;;;4.28;;
76236;SDS011;65038;53.200;6.530;2023-06-19T09:42:37;6.75;;;3.95;;
76236;SDS011;65038;53.200;6.530;2023-06-19T09:45:04;6.93;;;4.00;;
76236;SDS011;65038;53.200;6.530;2023-06-19T09:47:31;7.38;;;4.20;;
76236;SDS011;65038;53.200;6.530;2023-06-19T09:49:57;11.07;;;4.82;;
76236;SDS011;65038;53.200;6.530;2023-06-19T09:52:25;8.27;;;4.97;;
76236;SDS011;65038;53.200;6.530;2023-06-19T09:54:53;8.40;;;5.03;;
76236;SDS011;65038;53.200;6.530;2023-06-19T09:57:19;8.98;;;6.15;;
76236;SDS011;65038;53.200;6.530;2023-06-19T09:59:51;10.95;;;6.15;;
76236;SDS011;65038;53.200;6.530;2023-06-19T10:02:18;8.75;;;5.40;;
76236;SDS011;65038;53.200;6.530;2023-06-19T10:04:47;12.10;;;6.00;;
76236;SDS011;65038;53.200;6.530;2023-06-19T10:07:24;11.25;;;6.40;;
76236;SDS011;65038;53.200;6.530;2023-06-19T10:09:56;11.18;;;6.38;;
76236;SDS011;65038;53.200;6.530;2023-06-19T10:12:22;10.02;;;6.55;;
76236;SDS011;65038;53.200;6.530;2023-06-19T10:14:48;9.77;;;6.30;;
76236;SDS011;65038;53.200;6.530;2023-06-19T10:17:18;10.65;;;7.05;;
76236;SDS011;65038;53.200;6.530;2023-06-19T10:19:50;10.98;;;7.22;;
76236;SDS011;65038;53.200;6.530;2023-06-19T10:22:20;12.20;;;7.22;;
76236;SDS011;65038;53.200;6.530;2023-06-19T10:24:49;11.63;;;7.53;;
76236;SDS011;65038;53.200;6.530;2023-06-19T10:27:25;11.57;;;7.18;;
76236;SDS011;65038;53.200;6.530;2023-06-19T10:29:54;11.38;;;7.10;;
76236;SDS011;65038;53.200;6.530;2023-06-19T10:32:22;9.70;;;6.78;;
76236;SDS011;65038;53.200;6.530;2023-06-19T10:34:49;12.80;;;7.65;;
76236;SDS011;65038;53.200;6.530;2023-06-19T10:37:15;11.98;;;8.00;;
76236;SDS011;65038;53.200;6.530;2023-06-19T10:39:42;12.30;;;8.00;;
76236;SDS011;65038;53.200;6.530;2023-06-19T10:42:08;10.77;;;7.50;;
76236;SDS011;65038;53.200;6.530;2023-06-19T10:44:35;11.57;;;8.07;;
76236;SDS011;65038;53.200;6.530;2023-06-19T10:47:07;10.52;;;7.05;;
76236;SDS011;65038;53.200;6.530;2023-06-19T10:49:33;11.30;;;7.68;;
76236;SDS011;65038;53.200;6.530;2023-06-19T10:51:59;10.40;;;6.78;;
76236;SDS011;65038;53.200;6.530;2023-06-19T10:54:25;12.93;;;7.40;;
76236;SDS011;65038;53.200;6.530;2023-06-19T10:56:53;12.95;;;7.70;;
76236;SDS011;65038;53.200;6.530;2023-06-19T10:59:19;11.23;;;7.10;;
76236;SDS011;65038;53.200;6.530;2023-06-19T11:01:46;9.93;;;6.70;;
76236;SDS011;65038;53.200;6.530;2023-06-19T11:04:13;11.85;;;7.43;;
76236;SDS011;65038;53.200;6.530;2023-06-19T11:06:40;11.48;;;7.95;;
76236;SDS011;65038;53.200;6.530;2023-06-19T11:09:07;11.63;;;7.53;;
76236;SDS011;65038;53.200;6.530;2023-06-19T11:11:43;14.10;;;8.20;;
76236;SDS011;65038;53.200;6.530;2023-06-19T11:14:15;13.18;;;8.10;;
76236;SDS011;65038;53.200;6.530;2023-06-19T11:16:43;14.93;;;8.95;;
76236;SDS011;65038;53.200;6.530;2023-06-19T11:19:14;43.10;;;10.35;;
76236;SDS011;65038;53.200;6.530;2023-06-19T11:21:40;14.38;;;7.65;;
76236;SDS011;65038;53.200;6.530;2023-06-19T11:24:10;14.02;;;7.63;;
76236;SDS011;65038;53.200;6.530;2023-06-19T11:26:40;27.90;;;7.80;;
76236;SDS011;65038;53.200;6.530;2023-06-19T11:29:16;10.52;;;6.60;;
76236;SDS011;65038;53.200;6.530;2023-06-19T11:31:42;13.55;;;7.70;;
76236;SDS011;65038;53.200;6.530;2023-06-19T11:34:08;28.00;;;8.23;;
76236;SDS011;65038;53.200;6.530;2023-06-19T11:36:38;12.93;;;7.80;;
76236;SDS011;65038;53.200;6.530;2023-06-19T11:39:04;13.05;;;7.28;;
76236;SDS011;65038;53.200;6.530;2023-06-19T11:41:35;11.90;;;6.82;;
76236;SDS011;65038;53.200;6.530;2023-06-19T11:44:02;14.10;;;7.15;;
76236;SDS011;65038;53.200;6.530;2023-06-19T11:46:29;12.05;;;7.78;;
76236;SDS011;65038;53.200;6.530;2023-06-19T11:48:56;17.85;;;9.18;;
76236;SDS011;65038;53.200;6.530;2023-06-19T11:51:32;14.30;;;8.57;;
76236;SDS011;65038;53.200;6.530;2023-06-19T11:53:58;11.95;;;7.60;;
76236;SDS011;65038;53.200;6.530;2023-06-19T11:56:24;15.23;;;8.32;;
76236;SDS011;65038;53.200;6.530;2023-06-19T11:58:50;13.90;;;7.60;;
76236;SDS011;65038;53.200;6.530;2023-06-19T12:01:16;13.63;;;7.68;;
76236;SDS011;65038;53.200;6.530;2023-06-19T12:03:42;16.90;;;8.60;;
76236;SDS011;65038;53.200;6.530;2023-06-19T12:06:08;14.45;;;8.65;;
76236;SDS011;65038;53.200;6.530;2023-06-19T12:08:34;14.70;;;9.00;;
76236;SDS011;65038;53.200;6.530;2023-06-19T12:11:02;14.10;;;9.27;;
76236;SDS011;65038;53.200;6.530;2023-06-19T12:13:30;15.95;;;8.57;;
76236;SDS011;65038;53.200;6.530;2023-06-19T12:15:56;12.55;;;8.00;;
76236;SDS011;65038;53.200;6.530;2023-06-19T12:18:22;13.45;;;8.63;;
76236;SDS011;65038;53.200;6.530;2023-06-19T12:20:48;13.98;;;8.40;;
76236;SDS011;65038;53.200;6.530;2023-06-19T12:23:14;13.77;;;8.15;;
76236;SDS011;65038;53.200;6.530;2023-06-19T12:25:40;12.98;;;7.80;;
76236;SDS011;65038;53.200;6.530;2023-06-19T12:28:06;14.32;;;8.15;;
76236;SDS011;65038;53.200;6.530;2023-06-19T12:30:33;12.38;;;7.75;;
76236;SDS011;65038;53.200;6.530;2023-06-19T12:32:59;13.32;;;7.72;;
76236;SDS011;65038;53.200;6.530;2023-06-19T12:35:25;12.07;;;7.78;;
76236;SDS011;65038;53.200;6.530;2023-06-19T12:37:52;12.98;;;7.70;;
76236;SDS011;65038;53.200;6.530;2023-06-19T12:40:20;11.20;;;7.25;;
76236;SDS011;65038;53.200;6.530;2023-06-19T12:42:46;12.60;;;8.20;;
76236;SDS011;65038;53.200;6.530;2023-06-19T12:45:13;13.15;;;8.13;;
76236;SDS011;65038;53.200;6.530;2023-06-19T12:47:39;14.02;;;8.80;;
76236;SDS011;65038;53.200;6.530;2023-06-19T12:50:05;12.55;;;8.05;;
76236;SDS011;65038;53.200;6.530;2023-06-19T12:52:32;17.85;;;7.97;;
76236;SDS011;65038;53.200;6.530;2023-06-19T12:54:58;12.50;;;7.65;;
76236;SDS011;65038;53.200;6.530;2023-06-19T12:57:26;13.30;;;7.97;;
76236;SDS011;65038;53.200;6.530;2023-06-19T12:59:52;13.38;;;7.30;;
76236;SDS011;65038;53.200;6.530;2023-06-19T13:02:18;15.85;;;7.60;;
76236;SDS011;65038;53.200;6.530;2023-06-19T13:04:44;14.27;;;6.85;;
76236;SDS011;65038;53.200;6.530;2023-06-19T13:07:10;12.80;;;7.72;;
76236;SDS011;65038;53.200;6.530;2023-06-19T13:09:37;10.98;;;7.22;;
76236;SDS011;65038;53.200;6.530;2023-06-19T13:12:04;11.32;;;6.85;;
76236;SDS011;65038;53.200;6.530;2023-06-19T13:14:30;12.13;;;6.90;;
76236;SDS011;65038;53.200;6.530;2023-06-19T13:16:59;10.68;;;5.97;;
76236;SDS011;65038;53.200;6.530;2023-06-19T13:19:25;9.45;;;5.80;;
76236;SDS011;65038;53.200;6.530;2023-06-19T13:21:52;10.27;;;5.30;;
76236;SDS011;65038;53.200;6.530;2023-06-19T13:24:18;10.15;;;7.20;;
76236;SDS011;65038;53.200;6.530;2023-06-19T13:26:44;8.82;;;6.32;;
76236;SDS011;65038;53.200;6.530;2023-06-19T13:29:11;10.07;;;7.05;;
76236;SDS011;65038;53.200;6.530;2023-06-19T13:31:37;11.10;;;5.82;;
76236;SDS011;65038;53.200;6.530;2023-06-19T13:34:03;9.52;;;6.32;;
76236;SDS011;65038;53.200;6.530;2023-06-19T13:36:30;10.00;;;6.30;;
76236;SDS011;65038;53.200;6.530;2023-06-19T13:38:56;14.85;;;5.63;;
76236;SDS011;65038;53.200;6.530;2023-06-19T13:41:22;8.45;;;5.75;;
76236;SDS011;65038;53.200;6.530;2023-06-19T13:43:49;8.68;;;5.22;;
76236;SDS011;65038;53.200;6.530;2023-06-19T13:46:15;9.50;;;5.40;;
76236;SDS011;65038;53.200;6.530;2023-06-19T13:48:41;9.63;;;5.68;;
76236;SDS011;65038;53.200;6.530;2023-06-19T13:51:07;8.70;;;5.60;;
76236;SDS011;65038;53.200;6.530;2023-06-19T13:53:33;8.55;;;5.43;;
76236;SDS011;65038;53.200;6.530;2023-06-19T13:55:59;9.02;;;5.60;;
76236;SDS011;65038;53.200;6.530;2023-06-19T13:58:25;9.50;;;5.85;;
76236;SDS011;65038;53.200;6.530;2023-06-19T14:00:51;7.35;;;5.47;;
76236;SDS011;65038;53.200;6.530;2023-06-19T14:03:17;9.15;;;4.97;;
76236;SDS011;65038;53.200;6.530;2023-06-19T14:05:44;8.68;;;5.03;;
76236;SDS011;65038;53.200;6.530;2023-06-19T14:08:10;7.80;;;4.60;;
76236;SDS011;65038;53.200;6.530;2023-06-19T14:10:36;9.00;;;4.82;;
76236;SDS011;65038;53.200;6.530;2023-06-19T14:13:02;9.35;;;5.05;;
76236;SDS011;65038;53.200;6.530;2023-06-19T14:15:28;9.38;;;5.57;;
76236;SDS011;65038;53.200;6.530;2023-06-19T14:17:54;6.70;;;5.22;;
76236;SDS011;65038;53.200;6.530;2023-06-19T14:20:20;8.77;;;5.10;;
76236;SDS011;65038;53.200;6.530;2023-06-19T14:22:46;10.70;;;5.13;;
76236;SDS011;65038;53.200;6.530;2023-06-19T14:25:12;10.63;;;5.47;;
76236;SDS011;65038;53.200;6.530;2023-06-19T14:27:38;9.18;;;5.28;;
76236;SDS011;65038;53.200;6.530;2023-06-19T14:30:05;9.00;;;5.45;;
76236;SDS011;65038;53.200;6.530;2023-06-19T14:32:33;7.72;;;5.15;;
76236;SDS011;65038;53.200;6.530;2023-06-19T14:34:59;9.45;;;6.00;;
76236;SDS011;65038;53.200;6.530;2023-06-19T14:37:25;9.13;;;6.05;;